Terminal Aerodrome Forecast
Issued by NWS Sioux Falls, SD

Home | Current Version | Previous Version | Text Only | Print | Product List | Glossary Off
Versions: 1 2 3 4 5 6 7 8 9 10 11 12 13 14 15 16 17 18 19

000
FTUS43 KFSD 142333
TAFFSD
TAF
KFSD 142333Z 1500/1524 22006KT P6SM SCT017 BKN040
     FM150200 27006KT P6SM BKN110
     FM150400 31010KT P6SM BKN015
     FM150500 32011KT P6SM SCT070
     FM150900 31009KT P6SM FEW200
     FM151500 32013G20KT P6SM FEW250=

USA.gov is the U.S. government's official web portal to all federal, state and local government web resources and services.